Time;durP1;ratioP1;P1;durP2;ratioP2;P2;SDS_P1;SDS_P2;PMS_P1;PMS_P2;Temp;Humidity;BMP_temperature;BMP_pressure;BME280_temperature;BME280_humidity;BME280_pressure;Samples;Min_cycle;Max_cycle;Signal;HPM_P1;HPM_P2
2023/05/03 17:23:37;;;;;;;10.90;3.50;;;;;;;7.44;75.88;100947.32;105635;1290;614067;-71
2023/05/03 17:26:25;;;;;;;11.40;2.80;;;;;;;7.46;75.75;100944.02;108098;1265;57281;-72
2023/05/03 17:29:12;;;;;;;9.30;3.00;;;;;;;7.46;75.72;100945.44;106884;1268;60334;-69
2023/05/03 17:32:01;;;;;;;12.50;3.20;;;;;;;7.46;75.70;100945.80;105216;1266;70429;-70
2023/05/03 17:34:48;;;;;;;12.70;4.00;;;;;;;7.45;75.67;100948.66;105774;1263;68603;-70
2023/05/03 17:37:35;;;;;;;12.30;3.30;;;;;;;7.43;75.47;100950.02;106062;1263;71856;-71
2023/05/03 17:40:24;;;;;;;13.10;3.50;;;;;;;7.45;76.00;100956.13;105427;1264;59257;-70
2023/05/03 17:43:11;;;;;;;14.40;3.70;;;;;;;7.46;75.82;100956.05;105953;1263;60681;-69
2023/05/03 17:46:12;;;;;;;11.60;3.20;;;;;;;7.46;76.11;100953.55;105897;1265;69203;-71
2023/05/03 17:49:00;;;;;;;14.20;3.70;;;;;;;7.44;75.66;100959.50;107021;1262;66315;-71
2023/05/03 17:51:51;;;;;;;11.00;3.00;;;;;;;7.39;75.79;100958.36;108263;1263;71523;-70
2023/05/03 17:54:39;;;;;;;12.70;3.10;;;;;;;7.32;75.72;100953.00;105775;1263;59253;-71
2023/05/03 17:57:26;;;;;;;9.40;3.40;;;;;;;7.30;76.31;100957.21;106042;1263;59350;-71
2023/05/03 18:00:14;;;;;;;13.90;3.40;;;;;;;7.26;76.53;100958.08;105558;1260;71328;-71
2023/05/03 18:03:04;;;;;;;11.20;3.70;;;;;;;7.22;76.48;100956.21;106339;1260;67180;-71
2023/05/03 18:05:57;;;;;;;11.80;3.60;;;;;;;7.16;76.71;100959.83;106490;1257;72416;-70
2023/05/03 18:08:46;;;;;;;15.40;3.70;;;;;;;7.07;78.30;100965.57;105824;1260;59243;-70
2023/05/03 18:11:33;;;;;;;14.60;3.70;;;;;;;6.97;77.65;100960.90;107131;1257;60748;-71
2023/05/03 18:14:23;;;;;;;16.20;4.10;;;;;;;6.93;77.23;100962.16;105600;1258;71441;-68
2023/05/03 18:17:11;;;;;;;11.50;3.80;;;;;;;6.88;78.07;100960.64;106354;1257;68170;-68
2023/05/03 18:19:58;;;;;;;14.10;3.90;;;;;;;6.83;77.94;100963.37;106154;1260;71231;-69
2023/05/03 18:22:45;;;;;;;12.10;3.20;;;;;;;6.77;78.72;100963.65;105194;1260;59397;-72
2023/05/03 18:25:32;;;;;;;13.80;4.00;;;;;;;6.69;79.20;100961.19;103873;1260;1003813;-69
2023/05/03 18:28:22;;;;;;;14.20;3.70;;;;;;;6.62;79.08;100962.73;105814;1263;71433;-71
2023/05/03 18:31:10;;;;;;;15.10;3.70;;;;;;;6.57;79.57;100968.08;106520;1260;67925;-71
2023/05/03 18:34:02;;;;;;;12.20;3.50;;;;;;;6.51;79.46;100969.42;106748;1259;71480;-68
2023/05/03 18:36:50;;;;;;;12.70;3.50;;;;;;;6.47;79.98;100976.48;106323;1262;58403;-70
2023/05/03 18:39:41;;;;;;;14.80;3.20;;;;;;;6.40;80.14;100978.04;106419;1263;60373;-71
2023/05/03 18:42:35;;;;;;;13.80;3.80;;;;;;;6.30;79.81;100974.11;106092;1262;71938;-71
2023/05/03 18:45:29;;;;;;;11.90;3.90;;;;;;;6.26;79.96;100976.55;107340;1263;67069;-69
2023/05/03 18:48:44;;;;;;;15.60;3.80;;;;;;;6.24;80.25;100982.11;105656;1266;72714;-69
2023/05/03 18:51:37;;;;;;;12.50;3.10;;;;;;;6.22;79.88;100982.73;105012;1273;59250;-71
2023/05/03 18:54:49;;;;;;;12.60;3.50;;;;;;;6.19;80.07;100987.79;105005;1269;62112;-70
2023/05/03 18:57:38;;;;;;;11.20;3.40;;;;;;;6.15;80.10;100988.30;106022;1270;71523;-69
2023/05/03 19:00:31;;;;;;;13.30;3.40;;;;;;;6.12;80.31;100990.05;106382;1269;65571;-71
2023/05/03 19:03:20;;;;;;;14.30;3.70;;;;;;;6.10;80.67;100997.00;104826;1269;72733;-71
2023/05/03 19:06:07;;;;;;;18.90;4.00;;;;;;;6.08;81.08;100996.05;104982;1269;59280;-69
2023/05/03 19:08:53;;;;;;;13.40;3.80;;;;;;;6.01;80.30;100993.88;105718;1268;60363;-69
2023/05/03 19:11:42;;;;;;;12.80;4.30;;;;;;;5.96;80.44;100996.20;105313;1267;71458;-72
2023/05/03 19:14:29;;;;;;;12.70;3.90;;;;;;;5.92;80.81;100994.40;105409;1263;67865;-72
2023/05/03 19:17:15;;;;;;;16.00;4.70;;;;;;;5.90;81.09;100994.68;105610;1264;71415;-71
2023/05/03 19:20:09;;;;;;;12.80;4.00;;;;;;;5.86;81.25;100990.60;105356;1264;59405;-70
2023/05/03 19:22:55;;;;;;;14.20;4.50;;;;;;;5.81;81.40;100994.34;105346;1264;59365;-71
2023/05/03 19:25:42;;;;;;;16.10;4.30;;;;;;;5.77;81.40;100995.58;105555;1266;71372;-71
2023/05/03 19:28:31;;;;;;;14.70;4.60;;;;;;;5.72;81.43;100991.39;104546;1264;1003288;-70
2023/05/03 19:31:19;;;;;;;15.20;4.40;;;;;;;5.68;81.66;100989.61;105036;1267;71503;-70
2023/05/03 19:34:11;;;;;;;17.40;4.60;;;;;;;5.62;81.71;100988.80;105092;1265;59231;-70
2023/05/03 19:36:57;;;;;;;11.20;4.60;;;;;;;5.60;82.00;100991.52;104945;1270;59337;-71
2023/05/03 19:39:46;;;;;;;17.90;7.50;;;;;;;5.55;81.79;100993.19;106546;1265;70634;-70
2023/05/03 19:42:33;;;;;;;16.50;6.30;;;;;;;5.49;81.90;100991.30;105211;1268;67751;-69
